createdAt,value
2019-02-16T00:00:00.000Z,100245
2019-02-16T00:05:00.000Z,100238
2019-02-16T00:10:00.000Z,100250
2019-02-16T00:15:00.000Z,100251
2019-02-16T00:20:00.000Z,100247
2019-02-16T00:26:00.000Z,100238
2019-02-16T00:31:00.000Z,100239
2019-02-16T00:36:00.000Z,100242
2019-02-16T00:41:00.000Z,100232
2019-02-16T00:46:00.000Z,100231
2019-02-16T00:51:00.000Z,100225
2019-02-16T00:56:00.000Z,100227
2019-02-16T01:01:00.000Z,100214
2019-02-16T01:06:00.000Z,100211
2019-02-16T01:11:00.000Z,100203
2019-02-16T01:16:00.000Z,100200
2019-02-16T01:21:00.000Z,100193
2019-02-16T01:26:00.000Z,100188
2019-02-16T01:31:00.000Z,100187
2019-02-16T01:36:00.000Z,100175
2019-02-16T01:41:00.000Z,100170
2019-02-16T01:46:00.000Z,100159
2019-02-16T01:51:00.000Z,100165
2019-02-16T01:56:00.000Z,100155
2019-02-16T02:01:00.000Z,100140
2019-02-16T02:06:00.000Z,100143
2019-02-16T02:11:00.000Z,100134
2019-02-16T02:16:00.000Z,100132
2019-02-16T02:21:00.000Z,100124
2019-02-16T02:26:00.000Z,100131
2019-02-16T02:31:00.000Z,100139
2019-02-16T02:36:00.000Z,100149
2019-02-16T02:41:00.000Z,100147
2019-02-16T02:46:00.000Z,100130
2019-02-16T02:51:00.000Z,100121
2019-02-16T02:56:00.000Z,100120
2019-02-16T03:01:00.000Z,100121
2019-02-16T03:06:00.000Z,100122
2019-02-16T03:11:00.000Z,100116
2019-02-16T03:16:00.000Z,100108
2019-02-16T03:21:00.000Z,100125
2019-02-16T03:27:00.000Z,100123
2019-02-16T03:32:00.000Z,100132
2019-02-16T03:37:00.000Z,100146
2019-02-16T03:42:00.000Z,100137
2019-02-16T03:47:00.000Z,100128
2019-02-16T03:52:00.000Z,100135
2019-02-16T03:57:00.000Z,100130
2019-02-16T04:02:00.000Z,100112
2019-02-16T04:07:00.000Z,100119
2019-02-16T04:12:00.000Z,100126
2019-02-16T04:17:00.000Z,100126
2019-02-16T04:22:00.000Z,100119
2019-02-16T04:27:00.000Z,100122
2019-02-16T04:32:00.000Z,100118
2019-02-16T04:37:00.000Z,100122
2019-02-16T04:42:00.000Z,100122
2019-02-16T04:47:00.000Z,100126
2019-02-16T04:52:00.000Z,100116
2019-02-16T04:57:00.000Z,100123
2019-02-16T05:02:00.000Z,100117
2019-02-16T05:07:00.000Z,100124
2019-02-16T05:12:00.000Z,100122
2019-02-16T05:17:00.000Z,100127
2019-02-16T05:22:00.000Z,100134
2019-02-16T05:27:00.000Z,100139
2019-02-16T05:32:00.000Z,100127
2019-02-16T05:37:00.000Z,100138
2019-02-16T05:42:00.000Z,100143
2019-02-16T05:47:00.000Z,100144
2019-02-16T05:52:00.000Z,100143
2019-02-16T05:57:00.000Z,100158
2019-02-16T06:02:00.000Z,100159
2019-02-16T06:07:00.000Z,100168
2019-02-16T06:12:00.000Z,100165
2019-02-16T06:17:00.000Z,100168
2019-02-16T06:22:00.000Z,100175
2019-02-16T06:28:00.000Z,100184
2019-02-16T06:33:00.000Z,100183
2019-02-16T06:38:00.000Z,100192
2019-02-16T06:43:00.000Z,100187
2019-02-16T06:48:00.000Z,100199
2019-02-16T06:53:00.000Z,100206
2019-02-16T06:58:00.000Z,100212
2019-02-16T07:03:00.000Z,100197
2019-02-16T07:08:00.000Z,100213
2019-02-16T07:13:00.000Z,100218
2019-02-16T07:18:00.000Z,100207
2019-02-16T07:23:00.000Z,100216
2019-02-16T07:28:00.000Z,100224
2019-02-16T07:33:00.000Z,100224
2019-02-16T07:38:00.000Z,100223
2019-02-16T07:43:00.000Z,100221
2019-02-16T07:48:00.000Z,100228
2019-02-16T07:53:00.000Z,100220
2019-02-16T07:58:00.000Z,100218
2019-02-16T08:03:00.000Z,100213
2019-02-16T08:08:00.000Z,100216
2019-02-16T08:13:00.000Z,100211
2019-02-16T08:18:00.000Z,100207
2019-02-16T08:23:00.000Z,100210
2019-02-16T08:28:00.000Z,100194
2019-02-16T08:33:00.000Z,100197
2019-02-16T08:38:00.000Z,100191
2019-02-16T08:43:00.000Z,100188
2019-02-16T08:48:00.000Z,100187
2019-02-16T08:53:00.000Z,100195
2019-02-16T08:58:00.000Z,100187
2019-02-16T09:03:00.000Z,100185
2019-02-16T09:08:00.000Z,100194
2019-02-16T09:13:00.000Z,100187
2019-02-16T09:18:00.000Z,100185
2019-02-16T09:23:00.000Z,100187
2019-02-16T09:29:00.000Z,100177
2019-02-16T09:34:00.000Z,100181
2019-02-16T09:39:00.000Z,100183
2019-02-16T09:44:00.000Z,100178
2019-02-16T09:49:00.000Z,100184
2019-02-16T09:54:00.000Z,100179
2019-02-16T09:59:00.000Z,100172
2019-02-16T10:04:00.000Z,100175
2019-02-16T10:09:00.000Z,100187
2019-02-16T10:14:00.000Z,100185
2019-02-16T10:19:00.000Z,100188
2019-02-16T10:24:00.000Z,100188
2019-02-16T10:29:00.000Z,100179
2019-02-16T10:34:00.000Z,100172
2019-02-16T10:39:00.000Z,100170
2019-02-16T10:44:00.000Z,100160
2019-02-16T10:49:00.000Z,100157
2019-02-16T10:54:00.000Z,100158
2019-02-16T10:59:00.000Z,100162
2019-02-16T11:04:00.000Z,100148
2019-02-16T11:09:00.000Z,100148
2019-02-16T11:14:00.000Z,100130
2019-02-16T11:19:00.000Z,100133
2019-02-16T11:24:00.000Z,100131
2019-02-16T11:29:00.000Z,100129
2019-02-16T11:34:00.000Z,100135
2019-02-16T11:39:00.000Z,100132
2019-02-16T11:44:00.000Z,100139
2019-02-16T11:49:00.000Z,100123
2019-02-16T11:54:00.000Z,100120
2019-02-16T11:59:00.000Z,100113
2019-02-16T12:04:00.000Z,100101
2019-02-16T12:09:00.000Z,100102
2019-02-16T12:14:00.000Z,100099
2019-02-16T12:19:00.000Z,100087
2019-02-16T12:24:00.000Z,100073
2019-02-16T12:30:00.000Z,100069
2019-02-16T12:35:00.000Z,100071
2019-02-16T12:40:00.000Z,100069
2019-02-16T12:45:00.000Z,100057
2019-02-16T12:50:00.000Z,100067
2019-02-16T12:55:00.000Z,100054
2019-02-16T13:00:00.000Z,100056
2019-02-16T13:05:00.000Z,100053
2019-02-16T13:10:00.000Z,100055
2019-02-16T13:15:00.000Z,100047
2019-02-16T13:20:00.000Z,100045
2019-02-16T13:25:00.000Z,100038
2019-02-16T13:30:00.000Z,100037
2019-02-16T13:35:00.000Z,100030
2019-02-16T13:40:00.000Z,100036
2019-02-16T13:45:00.000Z,100035
2019-02-16T13:50:00.000Z,100029
2019-02-16T13:55:00.000Z,100030
2019-02-16T14:00:00.000Z,100026
2019-02-16T14:05:00.000Z,100024
2019-02-16T14:10:00.000Z,100025
2019-02-16T14:15:00.000Z,100025
2019-02-16T14:20:00.000Z,100016
2019-02-16T14:25:00.000Z,100016
2019-02-16T14:30:00.000Z,100013
2019-02-16T14:35:00.000Z,100019
2019-02-16T14:40:00.000Z,100005
2019-02-16T14:45:00.000Z,99999
2019-02-16T14:50:00.000Z,99990
2019-02-16T14:55:00.000Z,99985
2019-02-16T15:00:00.000Z,99992
2019-02-16T15:05:00.000Z,99992
2019-02-16T15:10:00.000Z,99989
2019-02-16T15:15:00.000Z,99983
2019-02-16T15:20:00.000Z,99984
2019-02-16T15:26:00.000Z,99980
2019-02-16T15:31:00.000Z,99978
2019-02-16T15:36:00.000Z,99983
2019-02-16T15:41:00.000Z,99984
2019-02-16T15:46:00.000Z,99974
2019-02-16T15:51:00.000Z,99979
2019-02-16T15:56:00.000Z,99989
2019-02-16T16:01:00.000Z,99977
2019-02-16T16:06:00.000Z,99989
2019-02-16T16:11:00.000Z,99982
2019-02-16T16:16:00.000Z,99984
2019-02-16T16:21:00.000Z,99996
2019-02-16T16:26:00.000Z,99990
2019-02-16T16:31:00.000Z,99984
2019-02-16T16:36:00.000Z,99983
2019-02-16T16:41:00.000Z,99990
2019-02-16T16:46:00.000Z,99988
2019-02-16T16:51:00.000Z,99990
2019-02-16T16:56:00.000Z,99995
2019-02-16T17:01:00.000Z,99996
2019-02-16T17:06:00.000Z,100001
2019-02-16T17:11:00.000Z,100005
2019-02-16T17:16:00.000Z,100015
2019-02-16T17:21:00.000Z,100018
2019-02-16T17:26:00.000Z,100010
2019-02-16T17:31:00.000Z,100014
2019-02-16T17:36:00.000Z,100017
2019-02-16T17:41:00.000Z,100024
2019-02-16T17:46:00.000Z,100018
2019-02-16T17:51:00.000Z,100029
2019-02-16T17:56:00.000Z,100038
2019-02-16T18:01:00.000Z,100027
2019-02-16T18:06:00.000Z,100028
2019-02-16T18:11:00.000Z,100024
2019-02-16T18:16:00.000Z,100028
2019-02-16T18:21:00.000Z,100018
2019-02-16T18:26:00.000Z,100012
2019-02-16T18:31:00.000Z,100015
2019-02-16T18:36:00.000Z,100005
2019-02-16T18:41:00.000Z,100002
2019-02-16T18:46:00.000Z,100009
2019-02-16T18:52:00.000Z,100003
2019-02-16T18:57:00.000Z,99994
2019-02-16T19:02:00.000Z,99989
2019-02-16T19:07:00.000Z,99999
2019-02-16T19:12:00.000Z,99993
2019-02-16T19:17:00.000Z,99987
2019-02-16T19:22:00.000Z,99992
2019-02-16T19:27:00.000Z,100006
2019-02-16T19:32:00.000Z,99999
2019-02-16T19:37:00.000Z,99994
2019-02-16T19:42:00.000Z,99990
2019-02-16T19:47:00.000Z,99968
2019-02-16T19:52:00.000Z,99987
2019-02-16T19:57:00.000Z,99973
2019-02-16T20:02:00.000Z,99967
2019-02-16T20:07:00.000Z,99973
2019-02-16T20:12:00.000Z,99983
2019-02-16T20:17:00.000Z,99974
2019-02-16T20:22:00.000Z,99965
2019-02-16T20:27:00.000Z,99960
2019-02-16T20:32:00.000Z,99966
2019-02-16T20:37:00.000Z,99967
2019-02-16T20:42:00.000Z,99956
2019-02-16T20:47:00.000Z,99957
2019-02-16T20:52:00.000Z,99953
2019-02-16T20:57:00.000Z,99951
2019-02-16T21:02:00.000Z,99955
2019-02-16T21:07:00.000Z,99947
2019-02-16T21:12:00.000Z,99939
2019-02-16T21:17:00.000Z,99936
2019-02-16T21:22:00.000Z,99936
2019-02-16T21:27:00.000Z,99925
2019-02-16T21:32:00.000Z,99942
2019-02-16T21:37:00.000Z,99932
2019-02-16T21:43:00.000Z,99941
2019-02-16T21:48:00.000Z,99929
2019-02-16T21:53:00.000Z,99933
2019-02-16T21:58:00.000Z,99934
2019-02-16T22:03:00.000Z,99929
2019-02-16T22:08:00.000Z,99934
2019-02-16T22:13:00.000Z,99933
2019-02-16T22:18:00.000Z,99925
2019-02-16T22:23:00.000Z,99920
2019-02-16T22:28:00.000Z,99920
2019-02-16T22:33:00.000Z,99919
2019-02-16T22:38:00.000Z,99913
2019-02-16T22:43:00.000Z,99920
2019-02-16T22:48:00.000Z,99920
2019-02-16T22:53:00.000Z,99910
2019-02-16T22:58:00.000Z,99898
2019-02-16T23:03:00.000Z,99907
2019-02-16T23:08:00.000Z,99907
2019-02-16T23:13:00.000Z,99905
2019-02-16T23:18:00.000Z,99897
2019-02-16T23:23:00.000Z,99902
2019-02-16T23:28:00.000Z,99900
2019-02-16T23:33:00.000Z,99890
2019-02-16T23:38:00.000Z,99894
2019-02-16T23:43:00.000Z,99890
2019-02-16T23:48:00.000Z,99883
2019-02-16T23:53:00.000Z,99876
2019-02-16T23:58:00.000Z,99869
